createdAt,value
2018-11-12T00:01:26.554Z,1.70
2018-11-12T00:03:55.068Z,3.30
2018-11-12T00:06:23.649Z,1.70
2018-11-12T00:08:52.073Z,4.23
2018-11-12T00:11:20.489Z,2.97
2018-11-12T00:13:49.080Z,3.07
2018-11-12T00:16:17.670Z,3.07
2018-11-12T00:18:46.115Z,3.00
2018-11-12T00:21:14.582Z,4.03
2018-11-12T00:23:43.088Z,3.63
2018-11-12T00:26:11.527Z,2.27
2018-11-12T00:28:40.032Z,2.20
2018-11-12T00:31:10.125Z,3.07
2018-11-12T00:33:38.871Z,3.33
2018-11-12T00:36:07.561Z,2.90
2018-11-12T00:38:36.037Z,1.80
2018-11-12T00:41:04.534Z,1.77
2018-11-12T00:43:33.004Z,2.27
2018-11-12T00:46:01.489Z,2.53
2018-11-12T00:48:29.895Z,1.50
2018-11-12T00:50:58.356Z,1.60
2018-11-12T00:53:26.817Z,2.03
2018-11-12T00:55:55.193Z,1.83
2018-11-12T00:58:23.620Z,1.67
2018-11-12T01:00:52.147Z,1.73
2018-11-12T01:03:20.577Z,1.60
2018-11-12T01:05:49.063Z,1.40
2018-11-12T01:08:17.503Z,1.70
2018-11-12T01:10:45.942Z,2.87
2018-11-12T01:13:14.384Z,1.80
2018-11-12T01:15:42.820Z,3.70
2018-11-12T01:18:11.248Z,1.50
2018-11-12T01:20:39.726Z,2.70
2018-11-12T01:23:08.268Z,2.90
2018-11-12T01:25:36.652Z,2.53
2018-11-12T01:28:05.305Z,2.93
2018-11-12T01:30:33.708Z,2.20
2018-11-12T01:33:02.225Z,2.20
2018-11-12T01:35:30.621Z,1.83
2018-11-12T01:37:59.009Z,2.70
2018-11-12T01:40:27.432Z,2.30
2018-11-12T01:42:55.842Z,1.70
2018-11-12T01:45:24.376Z,2.33
2018-11-12T01:47:52.780Z,1.70
2018-11-12T01:50:21.204Z,2.00
2018-11-12T01:52:49.815Z,2.40
2018-11-12T01:55:19.648Z,2.03
2018-11-12T01:57:48.070Z,1.57
2018-11-12T02:00:19.669Z,2.87
2018-11-12T02:02:49.216Z,1.67
2018-11-12T02:05:18.278Z,1.53
2018-11-12T02:07:46.723Z,1.77
2018-11-12T02:10:16.478Z,2.07
2018-11-12T02:12:44.919Z,3.30
2018-11-12T02:15:15.483Z,1.60
2018-11-12T02:17:44.711Z,2.47
2018-11-12T02:20:14.279Z,3.60
2018-11-12T02:22:43.600Z,1.60
2018-11-12T02:25:12.604Z,3.30
2018-11-12T02:27:41.059Z,3.23
2018-11-12T02:30:11.509Z,3.97
2018-11-12T02:32:39.932Z,3.60
2018-11-12T02:35:08.902Z,2.13
2018-11-12T02:37:38.077Z,1.70
2018-11-12T02:40:08.335Z,1.77
2018-11-12T02:42:36.943Z,2.20
2018-11-12T02:45:05.880Z,2.60
2018-11-12T02:47:34.290Z,3.27
2018-11-12T02:50:02.744Z,2.53
2018-11-12T02:52:31.160Z,1.73
2018-11-12T02:54:59.600Z,2.63
2018-11-12T02:57:28.125Z,3.87
2018-11-12T02:59:56.529Z,3.63
2018-11-12T03:02:24.982Z,2.23
2018-11-12T03:04:53.408Z,4.17
2018-11-12T03:07:21.852Z,2.13
2018-11-12T03:09:50.281Z,2.10
2018-11-12T03:12:18.678Z,3.37
2018-11-12T03:14:47.081Z,3.23
2018-11-12T03:17:15.488Z,4.30
2018-11-12T03:19:43.884Z,2.23
2018-11-12T03:22:12.307Z,2.37
2018-11-12T03:24:40.737Z,1.70
2018-11-12T03:27:09.169Z,2.60
2018-11-12T03:29:37.593Z,3.20
2018-11-12T03:32:06.435Z,3.17
2018-11-12T03:34:34.849Z,3.10
2018-11-12T03:37:03.368Z,2.30
2018-11-12T03:39:31.752Z,3.10
2018-11-12T03:42:00.747Z,2.53
2018-11-12T03:44:29.159Z,5.40
2018-11-12T03:46:57.523Z,3.20
2018-11-12T03:49:25.957Z,2.37
2018-11-12T03:51:54.392Z,3.80
2018-11-12T03:54:22.853Z,3.50
2018-11-12T03:56:51.252Z,3.37
2018-11-12T03:59:19.684Z,5.00
2018-11-12T04:01:48.161Z,2.57
2018-11-12T04:04:17.328Z,3.77
2018-11-12T04:06:46.594Z,4.53
2018-11-12T04:09:14.985Z,4.70
2018-11-12T04:11:45.304Z,3.50
2018-11-12T04:14:14.297Z,2.33
2018-11-12T04:16:44.100Z,2.60
2018-11-12T04:19:12.778Z,3.63
2018-11-12T04:21:41.206Z,3.67
2018-11-12T04:24:09.640Z,3.87
2018-11-12T04:26:38.061Z,3.00
2018-11-12T04:29:06.516Z,3.70
2018-11-12T04:31:34.929Z,3.90
2018-11-12T04:34:03.376Z,5.20
2018-11-12T04:36:31.768Z,4.63
2018-11-12T04:39:00.161Z,2.57
2018-11-12T04:41:28.688Z,2.00
2018-11-12T04:43:57.262Z,2.67
2018-11-12T04:46:25.698Z,3.77
2018-11-12T04:48:54.192Z,3.60
2018-11-12T04:51:22.555Z,2.63
2018-11-12T04:53:50.981Z,1.90
2018-11-12T04:56:19.464Z,2.63
2018-11-12T04:58:47.867Z,3.17
2018-11-12T05:01:16.313Z,3.57
2018-11-12T05:03:44.968Z,3.67
2018-11-12T05:06:13.385Z,3.10
2018-11-12T05:08:41.779Z,3.20
2018-11-12T05:11:10.208Z,4.90
2018-11-12T05:13:38.632Z,3.10
2018-11-12T05:16:07.060Z,5.47
2018-11-12T05:18:35.437Z,5.10
2018-11-12T05:21:03.900Z,3.30
2018-11-12T05:23:32.281Z,2.10
2018-11-12T05:26:00.673Z,4.03
2018-11-12T05:28:29.062Z,3.07
2018-11-12T05:30:57.460Z,3.33
2018-11-12T05:33:25.844Z,5.70
2018-11-12T05:35:54.232Z,4.60
2018-11-12T05:38:22.673Z,5.80
2018-11-12T05:40:51.116Z,2.80
2018-11-12T05:43:19.709Z,2.57
2018-11-12T05:45:48.084Z,4.40
2018-11-12T05:48:16.540Z,2.30
2018-11-12T05:50:44.927Z,3.73
2018-11-12T05:53:13.397Z,2.83
2018-11-12T05:55:41.775Z,2.17
2018-11-12T05:58:10.156Z,3.13
2018-11-12T06:00:38.549Z,3.13
2018-11-12T06:03:07.020Z,4.50
2018-11-12T06:05:35.832Z,2.97
2018-11-12T06:08:04.424Z,4.17
2018-11-12T06:10:33.818Z,3.17
2018-11-12T06:13:02.226Z,3.87
2018-11-12T06:15:30.719Z,2.23
2018-11-12T06:17:59.239Z,3.80
2018-11-12T06:20:29.102Z,2.50
2018-11-12T06:22:57.524Z,3.40
2018-11-12T06:25:28.501Z,4.60
2018-11-12T06:27:57.295Z,2.87
2018-11-12T06:30:34.689Z,4.10
2018-11-12T06:33:03.146Z,3.67
2018-11-12T06:35:31.548Z,3.23
2018-11-12T06:38:00.012Z,5.97
2018-11-12T06:40:28.831Z,3.20
2018-11-12T06:42:57.273Z,4.10
2018-11-12T06:45:26.814Z,6.10
2018-11-12T06:47:56.107Z,3.23
2018-11-12T06:50:25.932Z,3.90
2018-11-12T06:52:54.451Z,3.60
2018-11-12T06:55:23.393Z,4.37
2018-11-12T06:57:52.080Z,5.30
2018-11-12T07:00:25.556Z,4.47
2018-11-12T07:02:53.984Z,4.37
2018-11-12T07:05:22.552Z,4.93
2018-11-12T07:07:51.090Z,4.07
2018-11-12T07:10:24.640Z,3.43
2018-11-12T07:12:54.131Z,4.80
2018-11-12T07:15:23.851Z,3.90
2018-11-12T07:17:52.260Z,5.30
2018-11-12T07:20:22.248Z,4.23
2018-11-12T07:22:51.129Z,5.00
2018-11-12T07:25:21.114Z,3.43
2018-11-12T07:27:49.485Z,5.07
2018-11-12T07:30:21.142Z,2.40
2018-11-12T07:32:51.005Z,3.13
2018-11-12T07:35:19.969Z,4.47
2018-11-12T07:37:49.793Z,4.00
2018-11-12T07:40:18.673Z,3.23
2018-11-12T07:42:47.395Z,2.83
2018-11-12T07:45:17.099Z,4.17
2018-11-12T07:47:46.391Z,2.57
2018-11-12T07:50:16.336Z,4.33
2018-11-12T07:52:45.113Z,4.57
2018-11-12T07:55:15.528Z,3.77
2018-11-12T07:57:44.933Z,3.80
2018-11-12T08:00:16.896Z,2.90
2018-11-12T08:02:46.309Z,3.10
2018-11-12T08:05:16.525Z,4.33
2018-11-12T08:07:45.922Z,4.20
2018-11-12T08:10:16.539Z,4.77
2018-11-12T08:12:45.760Z,3.97
2018-11-12T08:15:15.664Z,3.87
2018-11-12T08:17:44.122Z,5.30
2018-11-12T08:20:15.432Z,4.20
2018-11-12T08:22:45.007Z,4.50
2018-11-12T08:25:13.709Z,4.77
2018-11-12T08:27:42.881Z,5.00
2018-11-12T08:30:14.776Z,4.43
2018-11-12T08:32:43.939Z,6.63
2018-11-12T08:35:13.127Z,5.83
2018-11-12T08:37:41.541Z,6.33
2018-11-12T08:40:11.885Z,3.83
2018-11-12T08:42:40.526Z,6.37
2018-11-12T08:45:09.845Z,6.70
2018-11-12T08:47:39.044Z,7.43
2018-11-12T08:50:10.633Z,6.13
2018-11-12T08:52:39.480Z,6.13
2018-11-12T08:55:08.851Z,6.43
2018-11-12T08:57:37.190Z,7.20
2018-11-12T09:00:07.147Z,5.13
2018-11-12T09:02:35.535Z,7.47
2018-11-12T09:05:04.541Z,8.37
2018-11-12T09:07:32.924Z,9.63
2018-11-12T09:10:02.157Z,8.57
2018-11-12T09:12:30.521Z,9.70
2018-11-12T09:14:58.928Z,9.80
2018-11-12T09:17:27.358Z,8.53
2018-11-12T09:19:55.757Z,9.23
2018-11-12T09:22:24.319Z,7.23
2018-11-12T09:24:52.708Z,6.40
2018-11-12T09:27:21.105Z,5.83
2018-11-12T09:29:49.564Z,8.43
2018-11-12T09:32:17.905Z,6.03
2018-11-12T09:34:46.373Z,8.47
2018-11-12T09:37:14.786Z,6.43
2018-11-12T09:39:43.172Z,6.27
2018-11-12T09:42:11.811Z,6.63
2018-11-12T09:44:40.368Z,8.37
2018-11-12T09:47:08.776Z,6.50
2018-11-12T09:49:37.152Z,6.47
2018-11-12T09:52:06.305Z,8.13
2018-11-12T09:54:34.844Z,4.23
2018-11-12T09:57:03.149Z,7.00
2018-11-12T09:59:31.588Z,6.37
2018-11-12T10:02:00.770Z,4.33
2018-11-12T10:04:29.334Z,6.33
2018-11-12T10:06:58.651Z,5.27
2018-11-12T10:09:27.830Z,7.27
2018-11-12T10:11:54.910Z,6.97
2018-11-12T10:14:24.701Z,5.43
2018-11-12T10:16:53.373Z,4.87
2018-11-12T10:19:18.891Z,5.40
2018-11-12T10:21:47.293Z,6.00
2018-11-12T10:24:15.746Z,6.03
2018-11-12T10:26:44.132Z,6.93
2018-11-12T10:29:12.661Z,6.60
2018-11-12T10:31:41.097Z,5.17
2018-11-12T10:34:09.649Z,5.20
2018-11-12T10:36:38.141Z,5.30
2018-11-12T10:39:08.276Z,4.27
2018-11-12T10:41:36.740Z,4.07
2018-11-12T10:44:05.257Z,3.60
2018-11-12T10:46:33.669Z,7.70
2018-11-12T10:49:02.193Z,5.90
2018-11-12T10:51:30.618Z,4.13
2018-11-12T10:53:59.251Z,3.00
2018-11-12T10:56:27.493Z,3.83
2018-11-12T10:58:55.919Z,3.53
2018-11-12T11:01:29.624Z,3.93
2018-11-12T11:04:03.276Z,4.17
2018-11-12T11:06:31.992Z,3.93
2018-11-12T11:09:00.400Z,3.83
2018-11-12T11:11:28.823Z,4.63
2018-11-12T11:13:57.252Z,4.00
2018-11-12T11:16:25.829Z,4.27
2018-11-12T11:18:54.265Z,5.00
2018-11-12T11:21:22.793Z,4.83
2018-11-12T11:23:51.152Z,5.47
2018-11-12T11:26:19.608Z,3.87
2018-11-12T11:28:48.223Z,5.00
2018-11-12T11:31:16.730Z,3.77
2018-11-12T11:33:45.242Z,3.87
2018-11-12T11:36:13.982Z,3.43
2018-11-12T11:38:42.681Z,2.47
2018-11-12T11:41:11.126Z,2.33
2018-11-12T11:43:39.678Z,3.23
2018-11-12T11:46:08.299Z,3.03
2018-11-12T11:48:36.694Z,3.70
2018-11-12T11:51:05.301Z,3.10
2018-11-12T11:53:33.722Z,4.13
2018-11-12T11:56:02.261Z,3.50
2018-11-12T11:58:30.692Z,5.07
2018-11-12T12:00:59.214Z,2.67
2018-11-12T12:03:27.631Z,3.87
2018-11-12T12:05:56.108Z,3.10
2018-11-12T12:08:24.528Z,3.87
2018-11-12T12:10:52.930Z,4.30
2018-11-12T12:13:21.619Z,2.17
2018-11-12T12:15:50.119Z,3.00
2018-11-12T12:18:18.675Z,4.90
2018-11-12T12:20:47.944Z,3.47
2018-11-12T12:23:16.556Z,3.33
2018-11-12T12:25:45.004Z,5.57
2018-11-12T12:28:13.424Z,6.83
2018-11-12T12:30:41.828Z,4.40
2018-11-12T12:33:10.289Z,3.30
2018-11-12T12:35:38.782Z,5.13
2018-11-12T12:38:07.172Z,2.70
2018-11-12T12:40:35.589Z,2.97
2018-11-12T12:43:04.424Z,3.47
2018-11-12T12:45:33.001Z,4.43
2018-11-12T12:48:01.324Z,2.23
2018-11-12T12:50:29.901Z,2.93
2018-11-12T12:52:58.337Z,2.67
2018-11-12T12:55:26.898Z,2.90
2018-11-12T12:57:55.257Z,3.00
2018-11-12T13:00:26.056Z,4.63
2018-11-12T13:02:54.729Z,3.57
2018-11-12T13:05:23.320Z,4.33
2018-11-12T13:07:51.766Z,3.63
2018-11-12T13:10:21.330Z,3.97
2018-11-12T13:12:49.769Z,5.50
2018-11-12T13:15:19.020Z,2.73
2018-11-12T13:17:48.293Z,3.87
2018-11-12T13:20:18.306Z,2.87
2018-11-12T13:22:47.307Z,3.80
2018-11-12T13:25:16.001Z,3.10
2018-11-12T13:27:45.035Z,2.93
2018-11-12T13:30:20.027Z,3.07
2018-11-12T13:32:48.893Z,6.20
2018-11-12T13:35:19.558Z,5.77
2018-11-12T13:37:48.047Z,7.93
2018-11-12T13:40:18.032Z,5.83
2018-11-12T13:42:47.964Z,7.03
2018-11-12T13:45:16.413Z,6.13
2018-11-12T13:47:45.345Z,7.40
2018-11-12T13:50:15.244Z,7.00
2018-11-12T13:52:44.043Z,9.43
2018-11-12T13:55:13.629Z,9.70
2018-11-12T13:57:42.116Z,13.03
2018-11-12T14:00:12.765Z,11.03
2018-11-12T14:02:41.978Z,10.20
2018-11-12T14:05:12.576Z,10.30
2018-11-12T14:07:41.416Z,11.80
2018-11-12T14:10:11.500Z,11.97
2018-11-12T14:12:40.689Z,10.83
2018-11-12T14:15:11.620Z,10.63
2018-11-12T14:17:40.447Z,11.37
2018-11-12T14:20:08.923Z,10.80
2018-11-12T14:22:37.830Z,13.47
2018-11-12T14:25:07.704Z,13.00
2018-11-12T14:27:36.223Z,11.43
2018-11-12T14:30:05.118Z,15.73
2018-11-12T14:32:33.779Z,12.43
2018-11-12T14:35:02.241Z,12.90
2018-11-12T14:37:30.674Z,14.07
2018-11-12T14:39:59.101Z,13.10
2018-11-12T14:42:27.504Z,13.67
2018-11-12T14:44:55.972Z,13.13
2018-11-12T14:47:24.369Z,14.63
2018-11-12T14:49:52.819Z,14.23
2018-11-12T14:52:21.514Z,11.87
2018-11-12T14:54:49.984Z,14.37
2018-11-12T14:57:18.349Z,12.00
2018-11-12T14:59:47.176Z,14.80
2018-11-12T15:02:15.568Z,12.60
2018-11-12T15:04:43.988Z,13.00
2018-11-12T15:07:12.401Z,11.60
2018-11-12T15:09:40.894Z,11.83
2018-11-12T15:12:09.361Z,12.23
2018-11-12T15:14:37.835Z,12.17
2018-11-12T15:17:06.254Z,11.23
2018-11-12T15:19:34.691Z,14.43
2018-11-12T15:22:03.195Z,12.70
2018-11-12T15:24:32.314Z,14.10
2018-11-12T15:27:00.848Z,12.90
2018-11-12T15:29:29.347Z,15.43
2018-11-12T15:31:57.715Z,19.00
2018-11-12T15:34:26.133Z,17.23
2018-11-12T15:36:54.697Z,15.83
2018-11-12T15:39:23.027Z,11.60
2018-11-12T15:41:51.484Z,13.07
2018-11-12T15:44:20.115Z,10.27
2018-11-12T15:46:48.541Z,11.37
2018-11-12T15:49:17.095Z,12.03
2018-11-12T15:51:46.584Z,10.43
2018-11-12T15:54:14.985Z,11.20
2018-11-12T15:56:43.481Z,11.20
2018-11-12T15:59:11.915Z,10.10
2018-11-12T16:01:40.333Z,10.13
2018-11-12T16:04:08.741Z,9.17
2018-11-12T16:06:37.216Z,8.90
2018-11-12T16:09:10.983Z,8.60
2018-11-12T16:11:39.424Z,8.93
2018-11-12T16:14:09.128Z,8.53
2018-11-12T16:16:37.803Z,9.47
2018-11-12T16:19:08.113Z,8.57
2018-11-12T16:21:36.508Z,8.50
2018-11-12T16:24:05.724Z,8.40
2018-11-12T16:26:34.142Z,8.77
2018-11-12T16:29:02.571Z,8.63
2018-11-12T16:31:31.016Z,11.20
2018-11-12T16:34:00.394Z,9.97
2018-11-12T16:36:28.774Z,10.47
2018-11-12T16:38:57.241Z,11.77
2018-11-12T16:41:25.674Z,11.57
2018-11-12T16:43:54.101Z,12.13
2018-11-12T16:46:22.501Z,12.47
2018-11-12T16:48:51.983Z,11.07
2018-11-12T16:51:20.397Z,8.97
2018-11-12T16:53:48.900Z,11.23
2018-11-12T16:56:17.312Z,12.13
2018-11-12T16:58:45.822Z,8.80
2018-11-12T17:01:14.260Z,9.13
2018-11-12T17:03:42.729Z,9.20
2018-11-12T17:06:11.295Z,9.40
2018-11-12T17:08:39.734Z,10.23
2018-11-12T17:11:08.219Z,8.83
2018-11-12T17:13:36.598Z,8.60
2018-11-12T17:16:05.356Z,9.77
2018-11-12T17:18:33.864Z,9.37
2018-11-12T17:21:02.337Z,8.50
2018-11-12T17:23:30.798Z,9.73
2018-11-12T17:25:59.214Z,9.07
2018-11-12T17:28:27.623Z,8.63
2018-11-12T17:30:56.140Z,9.63
2018-11-12T17:33:24.925Z,10.53
2018-11-12T17:35:53.336Z,9.97
2018-11-12T17:38:21.714Z,10.73
2018-11-12T17:40:50.321Z,10.17
2018-11-12T17:43:18.852Z,10.90
2018-11-12T17:45:47.206Z,11.90
2018-11-12T17:48:15.920Z,11.83
2018-11-12T17:50:44.471Z,11.53
2018-11-12T17:53:13.033Z,12.20
2018-11-12T17:55:41.445Z,10.67
2018-11-12T17:58:09.913Z,10.27
2018-11-12T18:00:38.365Z,12.03
2018-11-12T18:03:06.961Z,12.30
2018-11-12T18:05:35.401Z,12.97
2018-11-12T18:08:03.971Z,12.93
2018-11-12T18:10:32.356Z,12.07
2018-11-12T18:13:00.804Z,12.97
2018-11-12T18:15:29.240Z,14.00
2018-11-12T18:17:57.701Z,11.63
2018-11-12T18:20:27.701Z,12.20
2018-11-12T18:22:56.974Z,12.07
2018-11-12T18:25:25.512Z,14.90
2018-11-12T18:27:54.669Z,14.53
2018-11-12T18:30:24.926Z,15.33
2018-11-12T18:32:54.547Z,13.87
2018-11-12T18:35:23.044Z,14.93
2018-11-12T18:37:51.608Z,12.13
2018-11-12T18:40:21.721Z,13.27
2018-11-12T18:42:50.214Z,13.67
2018-11-12T18:45:20.928Z,14.63
2018-11-12T18:47:49.336Z,12.83
2018-11-12T18:50:20.347Z,13.77
2018-11-12T18:52:48.987Z,15.73
2018-11-12T18:55:17.958Z,13.47
2018-11-12T18:57:47.298Z,14.13
2018-11-12T19:00:17.227Z,12.30
2018-11-12T19:02:45.917Z,16.07
2018-11-12T19:05:16.883Z,14.37
2018-11-12T19:07:46.975Z,13.37
2018-11-12T19:10:17.137Z,13.33
2018-11-12T19:12:47.737Z,13.57
2018-11-12T19:15:17.623Z,14.03
2018-11-12T19:17:47.783Z,12.40
2018-11-12T19:20:16.845Z,13.47
2018-11-12T19:22:46.169Z,13.50
2018-11-12T19:25:14.622Z,14.03
2018-11-12T19:27:43.736Z,12.40
2018-11-12T19:30:16.323Z,12.17
2018-11-12T19:32:44.768Z,11.87
2018-11-12T19:35:14.209Z,12.43
2018-11-12T19:37:42.637Z,12.73
2018-11-12T19:40:15.748Z,13.33
2018-11-12T19:42:45.236Z,13.50
2018-11-12T19:45:14.261Z,12.80
2018-11-12T19:47:43.242Z,14.87
2018-11-12T19:50:13.605Z,12.37
2018-11-12T19:52:43.493Z,14.50
2018-11-12T19:55:12.397Z,14.70
2018-11-12T19:57:41.307Z,14.53
2018-11-12T20:00:12.353Z,14.43
2018-11-12T20:02:42.064Z,14.00
2018-11-12T20:05:10.920Z,13.97
2018-11-12T20:07:39.755Z,14.33
2018-11-12T20:10:10.244Z,15.97
2018-11-12T20:12:38.712Z,15.37
2018-11-12T20:15:08.997Z,15.77
2018-11-12T20:17:37.392Z,16.87
2018-11-12T20:20:10.647Z,16.10
2018-11-12T20:22:39.178Z,15.33
2018-11-12T20:25:08.588Z,19.03
2018-11-12T20:27:36.973Z,17.90
2018-11-12T20:30:08.227Z,17.27
2018-11-12T20:32:36.834Z,19.27
2018-11-12T20:35:05.584Z,18.23
2018-11-12T20:37:34.057Z,18.57
2018-11-12T20:40:02.506Z,16.87
2018-11-12T20:42:30.995Z,17.83
2018-11-12T20:44:59.430Z,19.90
2018-11-12T20:47:27.883Z,19.70
2018-11-12T20:49:56.323Z,16.77
2018-11-12T20:52:24.716Z,19.10
2018-11-12T20:54:53.189Z,18.30
2018-11-12T20:57:21.729Z,20.03
2018-11-12T20:59:50.241Z,18.93
2018-11-12T21:02:18.677Z,20.30
2018-11-12T21:04:47.268Z,21.53
2018-11-12T21:07:15.736Z,19.73
2018-11-12T21:09:44.232Z,22.40
2018-11-12T21:12:12.596Z,23.10
2018-11-12T21:14:41.065Z,22.70
2018-11-12T21:17:09.517Z,22.13
2018-11-12T21:19:38.096Z,24.93
2018-11-12T21:22:09.217Z,21.73
2018-11-12T21:24:37.872Z,23.70
2018-11-12T21:27:06.850Z,23.00
2018-11-12T21:29:35.284Z,23.20
2018-11-12T21:32:03.848Z,22.07
2018-11-12T21:34:32.267Z,24.40
2018-11-12T21:37:00.780Z,21.80
2018-11-12T21:39:29.240Z,24.57
2018-11-12T21:41:57.729Z,21.90
2018-11-12T21:44:26.216Z,23.23
2018-11-12T21:46:54.931Z,24.03
2018-11-12T21:49:23.444Z,20.77
2018-11-12T21:51:51.888Z,21.20
2018-11-12T21:54:20.882Z,21.50
2018-11-12T21:56:49.394Z,23.07
2018-11-12T21:59:17.978Z,20.23
2018-11-12T22:01:46.690Z,25.23
2018-11-12T22:04:15.116Z,22.23
2018-11-12T22:06:44.014Z,21.47
2018-11-12T22:09:12.683Z,24.80
2018-11-12T22:11:41.240Z,22.97
2018-11-12T22:14:09.680Z,21.90
2018-11-12T22:16:38.152Z,23.87
2018-11-12T22:19:06.928Z,25.57
2018-11-12T22:21:35.364Z,27.63
2018-11-12T22:24:03.823Z,23.43
2018-11-12T22:26:32.418Z,22.83
2018-11-12T22:29:01.394Z,21.87
2018-11-12T22:31:30.039Z,20.17
2018-11-12T22:33:58.529Z,20.43
2018-11-12T22:36:26.947Z,19.53
2018-11-12T22:38:55.407Z,21.70
2018-11-12T22:41:23.837Z,19.93
2018-11-12T22:43:52.261Z,21.53
2018-11-12T22:46:20.661Z,21.77
2018-11-12T22:48:49.129Z,23.27
2018-11-12T22:51:17.540Z,22.27
2018-11-12T22:53:46.023Z,23.57
2018-11-12T22:56:14.447Z,23.33
2018-11-12T22:58:42.882Z,25.03
2018-11-12T23:01:11.294Z,25.73
2018-11-12T23:03:39.788Z,27.17
2018-11-12T23:06:12.387Z,27.07
2018-11-12T23:08:41.779Z,29.17
2018-11-12T23:11:10.900Z,25.87
2018-11-12T23:13:39.485Z,25.23
2018-11-12T23:16:08.016Z,24.47
2018-11-12T23:18:36.461Z,23.53
2018-11-12T23:21:05.098Z,24.10
2018-11-12T23:23:33.584Z,23.93
2018-11-12T23:26:02.075Z,23.60
2018-11-12T23:28:30.485Z,21.57
2018-11-12T23:30:58.939Z,22.23
2018-11-12T23:33:27.377Z,19.57
2018-11-12T23:35:55.795Z,24.73
2018-11-12T23:38:24.213Z,20.87
2018-11-12T23:40:52.644Z,21.93
2018-11-12T23:43:21.081Z,19.47
2018-11-12T23:45:49.504Z,19.43
2018-11-12T23:48:17.924Z,18.77
2018-11-12T23:50:46.481Z,20.40
2018-11-12T23:53:14.952Z,19.07
2018-11-12T23:55:43.470Z,20.40
2018-11-12T23:58:11.949Z,20.07
